createdAt,value
2019-04-16T00:07:23.647Z,12.02
2019-04-16T00:12:22.264Z,11.46
2019-04-16T00:17:38.161Z,12.05
2019-04-16T00:22:49.566Z,11.69
2019-04-16T00:27:38.418Z,12.67
2019-04-16T00:33:00.629Z,12.09
2019-04-16T00:37:51.586Z,11.88
2019-04-16T00:43:03.814Z,12.66
2019-04-16T00:48:03.999Z,10.50
2019-04-16T00:53:15.794Z,12.24
2019-04-16T00:58:04.236Z,12.11
2019-04-16T01:03:19.335Z,11.99
2019-04-16T01:08:21.207Z,12.59
2019-04-16T01:13:33.070Z,13.05
2019-04-16T01:18:21.389Z,12.47
2019-04-16T01:23:36.550Z,12.22
2019-04-16T01:28:35.315Z,13.14
2019-04-16T01:33:57.820Z,13.60
2019-04-16T01:38:46.158Z,13.26
2019-04-16T01:44:01.559Z,12.40
2019-04-16T01:49:00.246Z,12.58
2019-04-16T01:54:22.546Z,11.66
2019-04-16T01:59:18.486Z,11.34
2019-04-16T02:04:37.571Z,14.59
2019-04-16T02:09:37.830Z,13.44
2019-04-16T02:14:47.346Z,13.91
2019-04-16T02:19:44.703Z,13.06
2019-04-16T02:24:59.584Z,13.48
2019-04-16T02:30:02.658Z,13.12
2019-04-16T02:35:16.916Z,13.63
2019-04-16T02:40:18.344Z,12.90
2019-04-16T02:45:36.617Z,13.20
2019-04-16T02:50:30.218Z,12.21
2019-04-16T02:55:43.854Z,13.52
2019-04-16T03:00:36.010Z,14.07
2019-04-16T03:05:50.501Z,13.00
2019-04-16T03:11:45.557Z,13.20
2019-04-16T03:16:44.389Z,13.55
2019-04-16T03:21:43.037Z,12.51
2019-04-16T03:26:58.040Z,12.67
2019-04-16T03:32:02.557Z,13.10
2019-04-16T03:37:07.945Z,13.22
2019-04-16T03:42:06.901Z,13.79
2019-04-16T03:47:24.777Z,13.48
2019-04-16T03:52:23.202Z,14.51
2019-04-16T04:02:41.911Z,12.45
2019-04-16T04:07:55.475Z,14.00
2019-04-16T04:12:45.576Z,13.06
2019-04-16T04:17:57.283Z,13.31
2019-04-16T04:22:56.763Z,12.28
2019-04-16T04:28:12.035Z,13.99
2019-04-16T04:33:10.503Z,13.84
2019-04-16T04:38:33.572Z,11.91
2019-04-16T04:43:19.693Z,13.74
2019-04-16T04:48:40.732Z,16.02
2019-04-16T04:53:29.149Z,13.99
2019-04-16T04:58:44.532Z,13.49
2019-04-16T05:03:49.620Z,12.47
2019-04-16T05:08:57.564Z,13.65
2019-04-16T05:13:56.087Z,14.04
2019-04-16T05:19:06.305Z,16.26
2019-04-16T05:24:05.270Z,12.56
2019-04-16T05:29:17.506Z,13.33
2019-04-16T05:34:27.751Z,13.79
2019-04-16T05:39:39.095Z,13.65
2019-04-16T05:44:27.540Z,13.50
2019-04-16T05:49:39.419Z,12.09
2019-04-16T05:54:37.741Z,14.03
2019-04-16T05:59:53.060Z,15.37
2019-04-16T06:04:55.627Z,13.51
2019-04-16T06:10:17.042Z,15.84
2019-04-16T06:15:00.309Z,15.93
2019-04-16T06:20:11.759Z,12.80
2019-04-16T06:25:11.118Z,13.13
2019-04-16T06:30:18.209Z,13.16
2019-04-16T06:35:26.597Z,15.42
2019-04-16T06:40:36.843Z,14.44
2019-04-16T06:45:37.053Z,12.56
2019-04-16T06:50:49.533Z,12.99
2019-04-16T06:55:52.138Z,14.11
2019-04-16T07:01:00.174Z,13.64
2019-04-16T07:06:03.694Z,12.50
2019-04-16T07:11:20.630Z,13.47
2019-04-16T07:16:09.419Z,11.56
2019-04-16T07:21:31.421Z,12.59
2019-04-16T07:26:20.351Z,12.01
2019-04-16T07:31:42.285Z,13.67
2019-04-16T07:36:31.081Z,11.92
2019-04-16T07:41:46.991Z,11.51
2019-04-16T07:46:47.097Z,13.76
2019-04-16T07:52:07.809Z,12.41
2019-04-16T07:56:56.420Z,14.43
2019-04-16T08:02:02.485Z,13.24
2019-04-16T08:07:01.314Z,11.74
2019-04-16T08:12:30.128Z,13.08
2019-04-16T08:17:24.826Z,12.97
2019-04-16T08:22:39.770Z,11.52
2019-04-16T08:27:25.302Z,11.81
2019-04-16T08:32:38.113Z,13.14
2019-04-16T08:37:48.337Z,12.66
2019-04-16T08:42:56.997Z,15.84
2019-04-16T08:47:54.134Z,14.15
2019-04-16T08:53:00.922Z,13.74
2019-04-16T08:58:07.137Z,14.14
2019-04-16T09:03:11.050Z,16.15
2019-04-16T09:08:13.036Z,15.36
2019-04-16T09:13:27.902Z,13.66
2019-04-16T09:18:26.857Z,13.51
2019-04-16T09:23:38.866Z,14.41
2019-04-16T09:28:37.881Z,14.69
2019-04-16T09:33:46.866Z,14.59
2019-04-16T09:39:01.938Z,13.22
2019-04-16T09:44:01.927Z,13.73
2019-04-16T09:49:14.192Z,13.42
2019-04-16T09:59:26.856Z,17.51
2019-04-16T10:04:39.481Z,15.87
2019-04-16T10:09:28.388Z,15.31
2019-04-16T10:14:44.445Z,14.00
2019-04-16T10:19:43.257Z,17.25
2019-04-16T10:25:17.441Z,13.25
2019-04-16T10:30:12.732Z,21.63
2019-04-16T10:35:24.190Z,13.55
2019-04-16T10:40:13.106Z,13.72
2019-04-16T10:45:31.519Z,14.14
2019-04-16T10:50:30.511Z,13.18
2019-04-16T10:55:46.710Z,11.25
2019-04-16T11:00:45.618Z,10.70
2019-04-16T11:05:57.026Z,14.11
2019-04-16T11:11:11.222Z,9.63
2019-04-16T11:16:22.881Z,11.95
2019-04-16T11:21:11.763Z,10.35
2019-04-16T11:26:24.386Z,11.15
2019-04-16T11:31:24.055Z,9.64
2019-04-16T11:36:37.833Z,10.12
2019-04-16T11:41:43.941Z,9.50
2019-04-16T11:46:55.658Z,8.90
2019-04-16T11:51:44.667Z,9.05
2019-04-16T11:57:00.168Z,9.16
2019-04-16T12:01:58.314Z,10.46
2019-04-16T12:12:21.145Z,10.49
2019-04-16T12:17:23.432Z,12.49
2019-04-16T12:22:31.796Z,10.45
2019-04-16T12:27:37.079Z,11.69
2019-04-16T12:32:36.231Z,10.86
2019-04-16T12:37:51.739Z,12.54
2019-04-16T12:42:57.559Z,10.52
2019-04-16T12:48:06.512Z,9.83
2019-04-16T12:53:14.259Z,10.85
2019-04-16T12:58:25.978Z,11.49
2019-04-16T13:03:17.525Z,12.93
2019-04-16T13:08:30.485Z,13.85
2019-04-16T13:13:29.471Z,14.90
2019-04-16T13:18:37.975Z,11.98
2019-04-16T13:23:47.637Z,12.53
2019-04-16T13:29:09.253Z,11.99
2019-04-16T13:33:57.101Z,16.53
2019-04-16T13:39:14.807Z,16.13
2019-04-16T13:44:16.939Z,11.98
2019-04-16T13:49:31.676Z,10.92
2019-04-16T13:59:47.524Z,12.12
2019-04-16T14:04:46.382Z,13.51
2019-04-16T14:10:02.294Z,12.84
2019-04-16T14:15:07.956Z,12.64
2019-04-16T14:20:14.304Z,12.15
2019-04-16T14:25:12.648Z,12.59
2019-04-16T14:30:31.603Z,11.06
2019-04-16T14:35:40.069Z,10.32
2019-04-16T14:40:44.363Z,11.62
2019-04-16T14:45:53.548Z,13.34
2019-04-16T14:51:05.629Z,11.34
2019-04-16T14:56:00.699Z,9.98
2019-04-16T15:01:10.119Z,11.47
2019-04-16T15:06:09.121Z,11.29
2019-04-16T15:11:25.171Z,12.71
2019-04-16T15:16:27.525Z,10.31
2019-04-16T15:21:26.433Z,8.87
2019-04-16T15:26:36.463Z,9.82
2019-04-16T15:31:43.325Z,10.14
2019-04-16T15:36:42.293Z,11.88
2019-04-16T15:41:56.547Z,12.10
2019-04-16T15:46:55.929Z,11.31
2019-04-16T15:52:11.479Z,12.18
2019-04-16T15:57:20.998Z,10.97
2019-04-16T16:02:28.249Z,9.90
2019-04-16T16:07:34.121Z,11.17
2019-04-16T16:12:42.537Z,11.87
2019-04-16T16:17:48.205Z,12.38
2019-04-16T16:23:00.905Z,13.15
2019-04-16T16:27:50.037Z,14.49
2019-04-16T16:33:13.100Z,13.89
2019-04-16T16:38:01.970Z,14.11
2019-04-16T16:43:20.768Z,13.30
2019-04-16T16:48:21.844Z,13.02
2019-04-16T16:53:31.864Z,13.89
2019-04-16T16:58:38.448Z,14.54
2019-04-16T17:03:43.011Z,14.43
2019-04-16T17:08:43.126Z,13.86
2019-04-16T17:13:43.407Z,14.76
2019-04-16T17:18:49.862Z,13.92
2019-04-16T17:24:02.879Z,13.14
2019-04-16T17:28:51.786Z,13.81
2019-04-16T17:34:13.729Z,14.68
2019-04-16T17:39:02.879Z,14.80
2019-04-16T17:44:27.287Z,13.74
2019-04-16T17:49:12.386Z,13.77
2019-04-16T17:54:20.923Z,13.25
2019-04-16T18:04:50.586Z,14.43
2019-04-16T18:09:43.043Z,13.94
2019-04-16T18:14:54.469Z,12.79
2019-04-16T18:19:43.324Z,13.86
2019-04-16T18:24:58.655Z,14.25
2019-04-16T18:29:57.906Z,11.27
2019-04-16T18:35:16.385Z,8.28
2019-04-16T18:40:16.013Z,8.12
2019-04-16T18:45:25.203Z,6.20
2019-04-16T18:50:27.749Z,4.85
2019-04-16T18:55:42.942Z,6.01
2019-04-16T19:00:41.787Z,5.83
2019-04-16T19:11:07.063Z,4.84
2019-04-16T19:16:15.586Z,4.74
2019-04-16T19:21:13.513Z,4.25
2019-04-16T19:26:36.708Z,4.07
2019-04-16T19:31:26.586Z,3.48
2019-04-16T19:36:36.189Z,3.47
2019-04-16T19:41:45.792Z,2.97
2019-04-16T19:47:02.673Z,3.30
2019-04-16T19:52:01.778Z,3.18
2019-04-16T19:57:24.263Z,4.05
2019-04-16T20:02:11.771Z,3.10
2019-04-16T20:07:34.372Z,3.94
2019-04-16T20:12:25.152Z,3.08
2019-04-16T20:17:46.857Z,3.55
2019-04-16T20:22:35.880Z,2.79
2019-04-16T20:27:51.847Z,3.07
2019-04-16T20:32:50.706Z,4.54
2019-04-16T20:38:06.900Z,2.90
2019-04-16T20:43:06.014Z,4.18
2019-04-16T20:48:21.544Z,3.11
2019-04-16T20:53:20.438Z,3.22
2019-04-16T20:58:39.194Z,2.47
2019-04-16T21:03:38.159Z,2.58
2019-04-16T21:13:50.800Z,3.48
2019-04-16T21:19:21.633Z,2.59
2019-04-16T21:24:07.810Z,2.95
2019-04-16T21:29:23.353Z,2.79
2019-04-16T21:34:26.334Z,3.63
2019-04-16T21:39:24.165Z,2.70
2019-04-16T21:44:23.505Z,3.55
2019-04-16T21:49:45.952Z,2.81
2019-04-16T21:54:34.812Z,2.59
2019-04-16T21:59:59.015Z,3.23
2019-04-16T22:04:46.902Z,2.61
2019-04-16T22:10:05.575Z,3.16
2019-04-16T22:15:04.433Z,3.76
2019-04-16T22:20:28.302Z,3.43
2019-04-16T22:25:16.328Z,2.47
2019-04-16T22:35:31.973Z,2.41
2019-04-16T22:40:40.621Z,2.34
2019-04-16T22:45:40.926Z,2.50
2019-04-16T22:50:46.665Z,2.47
2019-04-16T22:55:44.079Z,2.29
2019-04-16T23:01:09.811Z,2.66
2019-04-16T23:05:57.243Z,3.03
2019-04-16T23:11:17.016Z,2.96
2019-04-16T23:16:16.702Z,2.93
2019-04-16T23:21:32.791Z,2.53
2019-04-16T23:26:33.046Z,2.79
2019-04-16T23:31:43.689Z,2.53
2019-04-16T23:36:44.612Z,3.30
2019-04-16T23:42:00.800Z,2.41
2019-04-16T23:47:00.063Z,2.60
2019-04-16T23:52:16.618Z,2.50
2019-04-16T23:57:15.449Z,2.42
